createdAt,value
2018-05-25T00:00:30.851Z,96.90
2018-05-25T00:02:58.482Z,96.90
2018-05-25T00:05:26.249Z,96.80
2018-05-25T00:07:53.811Z,97.00
2018-05-25T00:10:21.394Z,97.40
2018-05-25T00:12:48.945Z,97.30
2018-05-25T00:15:16.611Z,97.60
2018-05-25T00:17:44.272Z,97.70
2018-05-25T00:20:12.018Z,97.50
2018-05-25T00:22:39.604Z,97.50
2018-05-25T00:25:07.181Z,97.90
2018-05-25T00:27:34.955Z,97.90
2018-05-25T00:30:02.509Z,98.10
2018-05-25T00:32:30.115Z,97.90
2018-05-25T00:34:57.676Z,97.60
2018-05-25T00:37:25.260Z,97.70
2018-05-25T00:39:53.014Z,97.80
2018-05-25T00:42:20.757Z,97.80
2018-05-25T00:44:48.344Z,97.60
2018-05-25T00:47:16.004Z,97.00
2018-05-25T00:49:43.584Z,97.50
2018-05-25T00:52:11.121Z,97.40
2018-05-25T00:54:38.685Z,97.40
2018-05-25T00:57:06.254Z,97.30
2018-05-25T00:59:33.826Z,97.40
2018-05-25T01:02:01.400Z,97.70
2018-05-25T01:04:29.732Z,97.80
2018-05-25T01:06:57.303Z,97.80
2018-05-25T01:09:24.878Z,97.80
2018-05-25T01:11:52.472Z,97.80
2018-05-25T01:14:20.073Z,98.50
2018-05-25T01:16:48.039Z,98.40
2018-05-25T01:19:15.713Z,98.30
2018-05-25T01:21:43.266Z,98.50
2018-05-25T01:24:11.052Z,98.50
2018-05-25T01:26:38.638Z,98.80
2018-05-25T01:29:06.206Z,98.90
2018-05-25T01:31:34.542Z,98.70
2018-05-25T01:34:02.289Z,98.60
2018-05-25T01:36:29.852Z,98.70
2018-05-25T01:38:57.550Z,98.80
2018-05-25T01:41:25.105Z,98.80
2018-05-25T01:43:52.663Z,98.80
2018-05-25T01:46:21.739Z,99.00
2018-05-25T01:48:49.301Z,99.00
2018-05-25T01:51:16.936Z,99.20
2018-05-25T01:53:44.495Z,99.20
2018-05-25T01:56:12.163Z,99.60
2018-05-25T01:58:39.727Z,99.50
2018-05-25T02:01:07.321Z,99.50
2018-05-25T02:03:34.885Z,99.40
2018-05-25T02:06:02.612Z,99.30
2018-05-25T02:08:30.157Z,99.40
2018-05-25T02:10:57.736Z,99.20
2018-05-25T02:13:25.303Z,99.30
2018-05-25T02:15:52.874Z,99.10
2018-05-25T02:18:20.475Z,99.10
2018-05-25T02:20:48.273Z,99.20
2018-05-25T02:23:15.879Z,99.40
2018-05-25T02:25:44.949Z,99.30
2018-05-25T02:28:12.535Z,99.30
2018-05-25T02:30:40.345Z,99.00
2018-05-25T02:33:07.917Z,98.90
2018-05-25T02:35:35.562Z,99.20
2018-05-25T02:38:03.120Z,99.30
2018-05-25T02:40:30.831Z,99.50
2018-05-25T02:42:58.404Z,99.90
2018-05-25T02:45:25.999Z,99.90
2018-05-25T02:47:53.567Z,99.90
2018-05-25T02:50:21.339Z,99.90
2018-05-25T02:52:49.152Z,99.90
2018-05-25T02:55:17.771Z,99.90
2018-05-25T02:57:45.312Z,99.90
2018-05-25T03:00:12.921Z,99.90
2018-05-25T03:02:40.483Z,99.90
2018-05-25T03:05:08.031Z,99.90
2018-05-25T03:07:35.620Z,99.90
2018-05-25T03:10:04.815Z,99.90
2018-05-25T03:12:32.524Z,99.90
2018-05-25T03:15:00.124Z,99.90
2018-05-25T03:17:27.772Z,99.90
2018-05-25T03:19:55.347Z,99.90
2018-05-25T03:22:22.931Z,99.90
2018-05-25T03:24:51.291Z,99.90
2018-05-25T03:27:19.045Z,99.90
2018-05-25T03:29:46.614Z,99.90
2018-05-25T03:32:14.172Z,99.90
2018-05-25T03:34:41.759Z,99.90
2018-05-25T03:37:09.327Z,99.90
2018-05-25T03:39:37.842Z,99.90
2018-05-25T03:42:05.463Z,99.90
2018-05-25T03:44:33.785Z,99.90
2018-05-25T03:47:01.357Z,99.90
2018-05-25T03:49:28.911Z,99.90
2018-05-25T03:51:56.732Z,99.90
2018-05-25T03:54:24.521Z,99.90
2018-05-25T03:56:52.071Z,99.90
2018-05-25T03:59:31.332Z,99.90
2018-05-25T04:01:59.785Z,99.90
2018-05-25T04:04:27.431Z,99.90
2018-05-25T04:06:55.006Z,99.90
2018-05-25T04:09:22.573Z,99.90
2018-05-25T04:11:50.116Z,99.90
2018-05-25T04:14:17.674Z,99.90
2018-05-25T04:16:45.227Z,99.90
2018-05-25T04:19:12.964Z,99.90
2018-05-25T04:21:40.537Z,99.90
2018-05-25T04:24:08.946Z,99.90
2018-05-25T04:26:36.510Z,99.90
2018-05-25T04:29:04.104Z,99.90
2018-05-25T04:31:31.688Z,99.90
2018-05-25T04:33:59.291Z,99.90
2018-05-25T04:36:26.877Z,99.90
2018-05-25T04:38:54.436Z,99.90
2018-05-25T04:41:22.371Z,99.90
2018-05-25T04:43:50.124Z,99.90
2018-05-25T04:46:17.728Z,99.80
2018-05-25T04:48:45.293Z,99.60
2018-05-25T04:51:12.837Z,99.20
2018-05-25T04:53:40.423Z,99.00
2018-05-25T04:56:07.971Z,98.60
2018-05-25T04:58:35.675Z,98.20
2018-05-25T05:01:04.001Z,98.40
2018-05-25T05:03:31.613Z,98.40
2018-05-25T05:05:59.190Z,98.30
2018-05-25T05:08:26.769Z,98.10
2018-05-25T05:10:54.332Z,98.10
2018-05-25T05:13:21.978Z,97.70
2018-05-25T05:15:49.564Z,97.80
2018-05-25T05:18:17.279Z,98.20
2018-05-25T05:20:44.861Z,98.20
2018-05-25T05:23:12.431Z,98.50
2018-05-25T05:25:39.972Z,98.30
2018-05-25T05:28:07.733Z,98.00
2018-05-25T05:30:35.304Z,98.10
2018-05-25T05:33:02.875Z,98.40
2018-05-25T05:35:30.425Z,98.60
2018-05-25T05:37:57.989Z,97.90
2018-05-25T05:40:25.565Z,98.10
2018-05-25T05:42:53.169Z,98.10
2018-05-25T05:45:21.490Z,98.50
2018-05-25T05:47:49.080Z,98.50
2018-05-25T05:50:16.764Z,98.40
2018-05-25T05:52:44.353Z,98.30
2018-05-25T05:55:11.950Z,98.30
2018-05-25T05:57:39.536Z,98.20
2018-05-25T06:00:07.860Z,97.30
2018-05-25T06:02:35.627Z,97.30
2018-05-25T06:05:03.383Z,97.30
2018-05-25T06:07:31.000Z,96.90
2018-05-25T06:09:59.324Z,95.20
2018-05-25T06:12:26.994Z,95.10
2018-05-25T06:14:54.550Z,94.30
2018-05-25T06:17:22.111Z,94.30
2018-05-25T06:19:49.694Z,94.20
2018-05-25T06:22:17.290Z,94.50
2018-05-25T06:24:44.854Z,94.30
2018-05-25T06:27:12.645Z,94.90
2018-05-25T06:29:40.239Z,95.50
2018-05-25T06:32:07.794Z,95.50
2018-05-25T06:34:36.136Z,95.60
2018-05-25T06:37:03.696Z,95.60
2018-05-25T06:39:31.288Z,95.50
2018-05-25T06:41:59.009Z,95.40
2018-05-25T06:44:26.688Z,95.70
2018-05-25T06:46:54.263Z,95.70
2018-05-25T06:49:22.051Z,95.20
2018-05-25T06:51:49.660Z,94.90
2018-05-25T06:54:17.231Z,94.70
2018-05-25T06:56:45.036Z,94.60
2018-05-25T06:59:12.613Z,94.20
2018-05-25T07:01:40.366Z,94.10
2018-05-25T07:04:08.703Z,94.20
2018-05-25T07:06:36.343Z,94.20
2018-05-25T07:09:03.872Z,93.90
2018-05-25T07:11:31.446Z,93.90
2018-05-25T07:13:59.839Z,93.60
2018-05-25T07:16:27.400Z,93.60
2018-05-25T07:18:54.964Z,93.60
2018-05-25T07:21:22.532Z,93.20
2018-05-25T07:23:50.106Z,93.00
2018-05-25T07:26:18.078Z,92.40
2018-05-25T07:28:46.547Z,92.20
2018-05-25T07:31:14.104Z,92.10
2018-05-25T07:33:41.672Z,92.50
2018-05-25T07:36:09.224Z,92.30
2018-05-25T07:38:36.833Z,92.00
2018-05-25T07:41:04.404Z,91.90
2018-05-25T07:43:32.071Z,92.20
2018-05-25T07:45:59.635Z,91.90
2018-05-25T07:48:27.223Z,92.10
2018-05-25T07:50:54.963Z,91.40
2018-05-25T07:53:22.503Z,91.20
2018-05-25T07:55:50.087Z,91.10
2018-05-25T07:58:17.800Z,90.20
2018-05-25T08:00:45.370Z,91.00
2018-05-25T08:03:12.968Z,90.40
2018-05-25T08:05:40.543Z,90.30
2018-05-25T08:08:08.137Z,89.40
2018-05-25T08:10:35.777Z,87.40
2018-05-25T08:13:03.315Z,85.80
2018-05-25T08:15:30.927Z,86.80
2018-05-25T08:17:58.557Z,87.00
2018-05-25T08:20:26.148Z,85.10
2018-05-25T08:22:54.565Z,82.70
2018-05-25T08:25:22.245Z,82.60
2018-05-25T08:27:49.857Z,82.30
2018-05-25T08:30:17.453Z,83.30
2018-05-25T08:32:45.064Z,80.30
2018-05-25T08:35:12.679Z,79.80
2018-05-25T08:37:40.400Z,77.60
2018-05-25T08:40:08.755Z,76.20
2018-05-25T08:42:36.335Z,76.10
2018-05-25T08:45:05.403Z,76.00
2018-05-25T08:47:32.985Z,75.90
2018-05-25T08:50:00.584Z,74.20
2018-05-25T08:52:28.194Z,70.20
2018-05-25T08:54:55.753Z,69.90
2018-05-25T08:57:23.318Z,71.70
2018-05-25T08:59:50.895Z,72.60
2018-05-25T09:02:18.480Z,71.40
2018-05-25T09:04:46.043Z,71.00
2018-05-25T09:07:13.644Z,73.00
2018-05-25T09:09:41.356Z,75.80
2018-05-25T09:12:08.891Z,75.30
2018-05-25T09:14:37.225Z,74.30
2018-05-25T09:17:04.824Z,74.20
2018-05-25T09:19:33.173Z,76.30
2018-05-25T09:22:00.756Z,76.30
2018-05-25T09:24:29.320Z,72.10
2018-05-25T09:26:57.076Z,71.70
2018-05-25T09:29:24.712Z,74.80
2018-05-25T09:31:52.273Z,71.50
2018-05-25T09:34:19.868Z,68.10
2018-05-25T09:36:47.426Z,66.00
2018-05-25T09:39:15.038Z,67.20
2018-05-25T09:41:42.624Z,64.60
2018-05-25T09:44:10.471Z,66.80
2018-05-25T09:46:38.221Z,66.90
2018-05-25T09:49:05.813Z,63.00
2018-05-25T09:51:33.383Z,60.60
2018-05-25T09:54:01.317Z,63.60
2018-05-25T09:56:28.888Z,67.10
2018-05-25T09:58:56.460Z,68.30
2018-05-25T10:01:24.052Z,68.40
2018-05-25T10:03:51.615Z,70.10
2018-05-25T10:06:19.969Z,72.10
2018-05-25T10:08:47.661Z,72.00
2018-05-25T10:11:15.243Z,71.80
2018-05-25T10:13:42.848Z,72.50
2018-05-25T10:16:10.431Z,71.40
2018-05-25T10:18:38.031Z,71.60
2018-05-25T10:21:05.601Z,70.90
2018-05-25T10:23:33.256Z,70.10
2018-05-25T10:26:00.826Z,70.40
2018-05-25T10:28:28.421Z,70.40
2018-05-25T10:30:56.004Z,69.90
2018-05-25T10:33:23.594Z,70.30
2018-05-25T10:35:51.164Z,68.90
2018-05-25T10:38:18.864Z,69.80
2018-05-25T10:40:46.437Z,70.60
2018-05-25T10:43:14.016Z,71.90
2018-05-25T10:45:42.408Z,70.50
2018-05-25T10:48:10.124Z,70.50
2018-05-25T10:50:37.710Z,69.00
2018-05-25T10:53:05.528Z,68.10
2018-05-25T10:55:33.137Z,67.70
2018-05-25T10:58:01.137Z,65.90
2018-05-25T11:00:28.842Z,65.00
2018-05-25T11:02:56.545Z,64.80
2018-05-25T11:05:24.125Z,66.90
2018-05-25T11:07:51.765Z,68.80
2018-05-25T11:10:19.371Z,68.60
2018-05-25T11:12:48.449Z,70.40
2018-05-25T11:15:16.816Z,66.50
2018-05-25T11:17:44.466Z,66.50
2018-05-25T11:20:12.022Z,66.30
2018-05-25T11:22:39.611Z,69.60
2018-05-25T11:25:07.200Z,71.20
2018-05-25T11:27:35.008Z,70.50
2018-05-25T11:30:02.555Z,71.80
2018-05-25T11:32:30.168Z,73.90
2018-05-25T11:34:57.785Z,73.50
2018-05-25T11:37:25.374Z,72.40
2018-05-25T11:39:52.936Z,68.80
2018-05-25T11:42:20.545Z,69.70
2018-05-25T11:44:48.870Z,68.90
2018-05-25T11:47:16.441Z,68.80
2018-05-25T11:49:44.022Z,72.90
2018-05-25T11:52:11.862Z,72.60
2018-05-25T11:54:39.501Z,68.70
2018-05-25T11:57:07.096Z,72.90
2018-05-25T11:59:34.690Z,79.10
2018-05-25T12:02:02.290Z,80.50
2018-05-25T12:04:29.888Z,77.60
2018-05-25T12:06:58.220Z,65.80
2018-05-25T12:09:26.075Z,65.80
2018-05-25T12:11:53.641Z,65.10
2018-05-25T12:14:21.224Z,67.70
2018-05-25T12:16:48.779Z,65.40
2018-05-25T12:19:16.401Z,67.60
2018-05-25T12:21:43.983Z,70.00
2018-05-25T12:24:11.896Z,70.20
2018-05-25T12:26:39.605Z,71.70
2018-05-25T12:29:07.187Z,76.60
2018-05-25T12:31:34.793Z,77.40
2018-05-25T12:34:03.122Z,75.90
2018-05-25T12:36:30.712Z,75.90
2018-05-25T12:38:58.287Z,77.90
2018-05-25T12:41:25.905Z,80.90
2018-05-25T12:43:53.521Z,84.20
2018-05-25T12:46:21.322Z,86.10
2018-05-25T12:48:48.976Z,85.00
2018-05-25T12:51:16.603Z,86.30
2018-05-25T12:53:44.339Z,86.20
2018-05-25T12:56:12.148Z,85.00
2018-05-25T12:58:39.756Z,86.30
2018-05-25T13:01:07.356Z,82.20
2018-05-25T13:03:35.021Z,79.80
2018-05-25T13:06:02.621Z,79.10
2018-05-25T13:08:30.327Z,78.30
2018-05-25T13:10:58.744Z,77.30
2018-05-25T13:13:26.386Z,77.30
2018-05-25T13:15:53.997Z,77.10
2018-05-25T13:18:23.075Z,79.40
2018-05-25T13:20:50.697Z,79.30
2018-05-25T13:23:18.321Z,79.50
2018-05-25T13:25:45.958Z,79.70
2018-05-25T13:28:13.626Z,81.40
2018-05-25T13:30:41.239Z,82.80
2018-05-25T13:33:08.860Z,81.30
2018-05-25T13:35:36.476Z,79.70
2018-05-25T13:38:04.055Z,79.00
2018-05-25T13:40:31.730Z,77.30
2018-05-25T13:42:59.321Z,77.60
2018-05-25T13:45:26.950Z,77.90
2018-05-25T13:47:54.560Z,78.00
2018-05-25T13:50:22.925Z,79.00
2018-05-25T13:52:50.581Z,79.00
2018-05-25T13:55:18.441Z,77.60
2018-05-25T13:57:47.810Z,76.00
2018-05-25T14:00:15.548Z,75.90
2018-05-25T14:02:43.331Z,75.70
2018-05-25T14:05:10.950Z,76.40
2018-05-25T14:07:38.587Z,74.60
2018-05-25T14:10:06.381Z,73.10
2018-05-25T14:12:34.004Z,73.30
2018-05-25T14:15:01.775Z,74.20
2018-05-25T14:17:29.386Z,73.20
2018-05-25T14:19:57.043Z,74.10
2018-05-25T14:22:24.631Z,74.90
2018-05-25T14:24:52.243Z,71.70
2018-05-25T14:27:19.816Z,72.30
2018-05-25T14:29:47.427Z,74.50
2018-05-25T14:32:15.062Z,75.30
2018-05-25T14:34:42.649Z,75.70
2018-05-25T14:37:10.243Z,73.40
2018-05-25T14:39:37.856Z,72.00
2018-05-25T14:42:05.450Z,71.80
2018-05-25T14:44:33.048Z,69.20
2018-05-25T14:47:00.657Z,68.70
2018-05-25T14:49:28.290Z,66.60
2018-05-25T14:51:56.033Z,68.80
2018-05-25T14:54:23.620Z,69.10
2018-05-25T14:56:51.246Z,67.20
2018-05-25T14:59:18.826Z,66.30
2018-05-25T15:01:46.468Z,66.90
2018-05-25T15:04:14.234Z,65.10
2018-05-25T15:06:42.072Z,65.90
2018-05-25T15:09:09.563Z,64.30
2018-05-25T15:11:37.139Z,63.30
2018-05-25T15:14:04.754Z,62.10
2018-05-25T15:16:33.139Z,57.00
2018-05-25T15:19:00.752Z,56.90
2018-05-25T15:21:28.455Z,54.80
2018-05-25T15:23:56.050Z,53.60
2018-05-25T15:26:23.617Z,49.90
2018-05-25T15:28:51.313Z,48.90
2018-05-25T15:31:18.919Z,46.50
2018-05-25T15:33:46.527Z,41.90
2018-05-25T15:36:14.089Z,39.60
2018-05-25T15:38:41.725Z,39.40
2018-05-25T15:41:09.337Z,39.00
2018-05-25T15:43:37.083Z,38.40
2018-05-25T15:46:05.491Z,41.40
2018-05-25T15:48:33.101Z,41.40
2018-05-25T15:51:00.763Z,43.50
2018-05-25T15:53:28.382Z,44.90
2018-05-25T15:55:56.031Z,46.30
2018-05-25T15:58:24.399Z,48.70
2018-05-25T16:00:52.080Z,48.70
2018-05-25T16:03:26.700Z,47.90
2018-05-25T16:05:54.314Z,48.70
2018-05-25T16:08:21.902Z,49.30
2018-05-25T16:10:50.252Z,51.00
2018-05-25T16:13:17.885Z,50.80
2018-05-25T16:15:45.515Z,51.40
2018-05-25T16:18:13.508Z,50.10
2018-05-25T16:20:41.151Z,51.60
2018-05-25T16:23:08.753Z,51.60
2018-05-25T16:25:36.351Z,51.10
2018-05-25T16:28:04.720Z,52.70
2018-05-25T16:30:32.443Z,52.60
2018-05-25T16:33:00.033Z,54.10
2018-05-25T16:35:27.815Z,53.90
2018-05-25T16:37:56.164Z,53.20
2018-05-25T16:40:23.771Z,53.10
2018-05-25T16:42:51.357Z,51.70
2018-05-25T16:45:19.005Z,50.80
2018-05-25T16:47:46.590Z,51.60
2018-05-25T16:50:14.292Z,51.10
2018-05-25T16:52:42.094Z,49.60
2018-05-25T16:55:09.712Z,50.10
2018-05-25T16:57:38.134Z,50.70
2018-05-25T17:00:05.766Z,50.60
2018-05-25T17:02:33.413Z,51.10
2018-05-25T17:05:02.158Z,52.60
2018-05-25T17:07:29.805Z,52.60
2018-05-25T17:09:57.469Z,53.90
2018-05-25T17:12:25.142Z,53.90
2018-05-25T17:14:52.826Z,54.20
2018-05-25T17:17:20.532Z,54.80
2018-05-25T17:19:48.970Z,55.40
2018-05-25T17:22:16.606Z,55.40
2018-05-25T17:24:44.367Z,56.40
2018-05-25T17:27:12.113Z,56.60
2018-05-25T17:29:40.193Z,57.60
2018-05-25T17:32:07.782Z,58.10
2018-05-25T17:34:35.393Z,58.70
2018-05-25T17:37:02.982Z,59.10
2018-05-25T17:39:30.616Z,59.70
2018-05-25T17:41:58.239Z,60.00
2018-05-25T17:44:25.817Z,59.90
2018-05-25T17:46:53.566Z,59.80
2018-05-25T17:49:21.171Z,60.40
2018-05-25T17:51:48.761Z,61.20
2018-05-25T17:54:16.345Z,62.20
2018-05-25T17:56:43.953Z,62.70
2018-05-25T17:59:11.525Z,63.80
2018-05-25T18:01:39.146Z,64.40
2018-05-25T18:04:07.479Z,65.90
2018-05-25T18:06:35.082Z,65.90
2018-05-25T18:09:03.430Z,69.00
2018-05-25T18:11:31.046Z,68.90
2018-05-25T18:13:58.636Z,69.50
2018-05-25T18:16:26.208Z,70.80
2018-05-25T18:18:53.807Z,72.20
2018-05-25T18:21:22.187Z,73.40
2018-05-25T18:23:49.860Z,73.30
2018-05-25T18:26:17.550Z,73.00
2018-05-25T18:28:45.161Z,73.90
2018-05-25T18:31:12.747Z,73.60
2018-05-25T18:33:40.343Z,74.40
2018-05-25T18:36:07.909Z,75.60
2018-05-25T18:38:35.490Z,76.10
2018-05-25T18:41:03.949Z,78.00
2018-05-25T18:43:31.555Z,78.00
2018-05-25T18:45:59.167Z,77.70
2018-05-25T18:48:26.883Z,78.20
2018-05-25T18:50:54.467Z,78.90
2018-05-25T18:53:22.324Z,79.40
2018-05-25T18:55:49.943Z,80.00
2018-05-25T18:58:18.321Z,81.00
2018-05-25T19:00:45.951Z,80.90
2018-05-25T19:03:13.541Z,81.70
2018-05-25T19:05:41.977Z,82.70
2018-05-25T19:08:09.634Z,82.70
2018-05-25T19:10:37.239Z,83.30
2018-05-25T19:13:05.584Z,83.50
2018-05-25T19:15:33.220Z,83.50
2018-05-25T19:18:00.802Z,84.60
2018-05-25T19:20:28.392Z,83.80
2018-05-25T19:22:55.960Z,83.70
2018-05-25T19:25:23.658Z,82.90
2018-05-25T19:27:51.269Z,82.00
2018-05-25T19:30:18.853Z,81.20
2018-05-25T19:32:46.421Z,80.50
2018-05-25T19:35:14.814Z,81.40
2018-05-25T19:37:42.382Z,81.40
2018-05-25T19:40:09.940Z,82.10
2018-05-25T19:42:37.576Z,82.40
2018-05-25T19:45:05.262Z,83.20
2018-05-25T19:47:32.858Z,82.50
2018-05-25T19:50:00.445Z,84.20
2018-05-25T19:52:28.237Z,84.30
2018-05-25T19:54:55.821Z,84.10
2018-05-25T19:57:23.419Z,84.80
2018-05-25T19:59:51.017Z,85.40
2018-05-25T20:02:18.638Z,85.40
2018-05-25T20:04:47.240Z,86.20
2018-05-25T20:07:15.748Z,88.20
2018-05-25T20:09:43.512Z,88.20
2018-05-25T20:12:11.079Z,88.30
2018-05-25T20:14:38.894Z,88.20
2018-05-25T20:17:06.541Z,89.30
2018-05-25T20:19:34.142Z,90.00
2018-05-25T20:22:01.762Z,90.20
2018-05-25T20:24:29.333Z,90.30
2018-05-25T20:26:56.897Z,90.70
2018-05-25T20:29:24.500Z,90.70
2018-05-25T20:31:52.162Z,90.70
2018-05-25T20:34:19.776Z,91.10
2018-05-25T20:36:48.109Z,91.40
2018-05-25T20:39:15.738Z,91.30
2018-05-25T20:41:43.505Z,91.30
2018-05-25T20:44:11.117Z,91.20
2018-05-25T20:46:38.727Z,91.10
2018-05-25T20:49:07.115Z,91.80
2018-05-25T20:51:34.796Z,91.70
2018-05-25T20:54:02.413Z,91.60
2018-05-25T20:56:30.101Z,91.30
2018-05-25T20:58:57.910Z,91.20
2018-05-25T21:01:25.546Z,91.40
2018-05-25T21:03:53.388Z,92.10
2018-05-25T21:06:20.986Z,92.60
2018-05-25T21:08:48.580Z,92.60
2018-05-25T21:11:16.165Z,92.80
2018-05-25T21:13:43.980Z,93.00
2018-05-25T21:16:11.566Z,93.10
2018-05-25T21:18:39.237Z,93.40
2018-05-25T21:21:07.608Z,93.60
2018-05-25T21:23:35.198Z,93.60
2018-05-25T21:26:02.805Z,93.80
2018-05-25T21:28:31.162Z,93.80
2018-05-25T21:30:58.920Z,93.50
2018-05-25T21:33:26.510Z,93.50
2018-05-25T21:35:54.086Z,93.50
2018-05-25T21:38:21.776Z,93.20
2018-05-25T21:40:50.135Z,93.30
2018-05-25T21:43:18.507Z,93.50
2018-05-25T21:45:46.122Z,93.50
2018-05-25T21:48:13.737Z,93.50
2018-05-25T21:50:41.322Z,93.80
2018-05-25T21:53:08.893Z,94.10
2018-05-25T21:55:36.539Z,94.50
2018-05-25T21:58:04.211Z,94.90
2018-05-25T22:00:31.916Z,95.20
2018-05-25T22:02:59.508Z,95.50
2018-05-25T22:05:27.255Z,95.70
2018-05-25T22:07:54.864Z,95.40
2018-05-25T22:10:22.455Z,95.60
2018-05-25T22:12:50.035Z,95.80
2018-05-25T22:15:17.656Z,95.90
2018-05-25T22:17:45.274Z,96.10
2018-05-25T22:20:12.900Z,96.50
2018-05-25T22:22:40.513Z,96.60
2018-05-25T22:25:08.168Z,96.80
2018-05-25T22:27:36.506Z,97.10
2018-05-25T22:30:04.096Z,97.10
2018-05-25T22:32:32.528Z,97.10
2018-05-25T22:35:00.118Z,97.10
2018-05-25T22:37:28.500Z,97.10
2018-05-25T22:39:56.113Z,97.10
2018-05-25T22:42:35.420Z,97.30
2018-05-25T22:45:14.748Z,97.30
2018-05-25T22:47:55.040Z,97.70
2018-05-25T22:50:34.520Z,97.70
2018-05-25T22:53:07.260Z,97.90
2018-05-25T22:55:34.871Z,97.80
2018-05-25T22:58:02.502Z,97.90
2018-05-25T23:00:30.083Z,97.80
2018-05-25T23:02:57.659Z,97.70
2018-05-25T23:05:25.983Z,97.50
2018-05-25T23:07:53.577Z,97.50
2018-05-25T23:10:21.157Z,97.50
2018-05-25T23:12:48.881Z,97.50
2018-05-25T23:15:16.496Z,97.40
2018-05-25T23:17:44.079Z,97.50
2018-05-25T23:20:12.420Z,97.20
2018-05-25T23:22:40.168Z,97.20
2018-05-25T23:25:08.592Z,97.30
2018-05-25T23:27:36.192Z,97.40
2018-05-25T23:30:04.567Z,97.20
2018-05-25T23:32:32.272Z,97.20
2018-05-25T23:35:00.663Z,97.50
2018-05-25T23:37:28.253Z,97.50
2018-05-25T23:39:55.841Z,97.20
2018-05-25T23:42:23.412Z,97.20
2018-05-25T23:44:50.981Z,97.20
2018-05-25T23:47:19.293Z,97.50
2018-05-25T23:49:47.207Z,97.50
2018-05-25T23:52:14.794Z,97.80
2018-05-25T23:54:43.128Z,97.90
2018-05-25T23:57:10.924Z,97.90
2018-05-25T23:59:39.302Z,98.00
